sensor_id;sensor_type;location;lat;lon;timestamp;P1;P2;P0
57884;PMS5003;43703;51.060;-0.086;2024-03-08T00:02:21;109;97;
57884;PMS5003;43703;51.060;-0.086;2024-03-08T00:04:48;95;87;
57884;PMS5003;43703;51.060;-0.086;2024-03-08T00:12:04;98;90;
57884;PMS5003;43703;51.060;-0.086;2024-03-08T00:14:30;106;87;
57884;PMS5003;43703;51.060;-0.086;2024-03-08T00:16:55;101;89;
57884;PMS5003;43703;51.060;-0.086;2024-03-08T00:19:21;102;88;
57884;PMS5003;43703;51.060;-0.086;2024-03-08T00:21:47;105;91;
57884;PMS5003;43703;51.060;-0.086;2024-03-08T00:24:10;103;97;
57884;PMS5003;43703;51.060;-0.086;2024-03-08T00:26:36;102;92;
57884;PMS5003;43703;51.060;-0.086;2024-03-08T00:29:03;100;91;
57884;PMS5003;43703;51.060;-0.086;2024-03-08T00:31:27;89;83;
57884;PMS5003;43703;51.060;-0.086;2024-03-08T00:33:51;87;83;
57884;PMS5003;43703;51.060;-0.086;2024-03-08T00:36:18;106;92;
57884;PMS5003;43703;51.060;-0.086;2024-03-08T00:38:41;92;85;
57884;PMS5003;43703;51.060;-0.086;2024-03-08T00:41:07;84;81;
57884;PMS5003;43703;51.060;-0.086;2024-03-08T00:43:35;97;93;
57884;PMS5003;43703;51.060;-0.086;2024-03-08T00:45:59;103;90;
57884;PMS5003;43703;51.060;-0.086;2024-03-08T00:48:26;94;81;
57884;PMS5003;43703;51.060;-0.086;2024-03-08T00:50:52;90;79;
57884;PMS5003;43703;51.060;-0.086;2024-03-08T00:58:12;87;79;
57884;PMS5003;43703;51.060;-0.086;2024-03-08T01:00:34;96;85;
57884;PMS5003;43703;51.060;-0.086;2024-03-08T01:02:58;91;86;
57884;PMS5003;43703;51.060;-0.086;2024-03-08T01:05:25;98;86;
57884;PMS5003;43703;51.060;-0.086;2024-03-08T01:07:50;96;84;
57884;PMS5003;43703;51.060;-0.086;2024-03-08T01:10:13;89;83;
57884;PMS5003;43703;51.060;-0.086;2024-03-08T01:12:38;99;90;
57884;PMS5003;43703;51.060;-0.086;2024-03-08T01:15:04;98;84;
57884;PMS5003;43703;51.060;-0.086;2024-03-08T01:17:29;82;76;
57884;PMS5003;43703;51.060;-0.086;2024-03-08T01:19:54;93;77;
57884;PMS5003;43703;51.060;-0.086;2024-03-08T01:22:19;87;80;
57884;PMS5003;43703;51.060;-0.086;2024-03-08T01:24:44;94;81;
57884;PMS5003;43703;51.060;-0.086;2024-03-08T01:27:09;80;74;
57884;PMS5003;43703;51.060;-0.086;2024-03-08T01:29:35;85;76;
57884;PMS5003;43703;51.060;-0.086;2024-03-08T01:32:00;95;82;
57884;PMS5003;43703;51.060;-0.086;2024-03-08T01:34:25;81;79;
57884;PMS5003;43703;51.060;-0.086;2024-03-08T01:36:51;88;82;
57884;PMS5003;43703;51.060;-0.086;2024-03-08T01:39:17;89;80;
57884;PMS5003;43703;51.060;-0.086;2024-03-08T01:41:42;84;80;
57884;PMS5003;43703;51.060;-0.086;2024-03-08T01:44:09;97;86;
57884;PMS5003;43703;51.060;-0.086;2024-03-08T01:46:33;89;78;
57884;PMS5003;43703;51.060;-0.086;2024-03-08T01:48:59;94;84;
57884;PMS5003;43703;51.060;-0.086;2024-03-08T01:51:24;78;72;
57884;PMS5003;43703;51.060;-0.086;2024-03-08T01:53:49;75;67;
57884;PMS5003;43703;51.060;-0.086;2024-03-08T01:56:15;88;75;
57884;PMS5003;43703;51.060;-0.086;2024-03-08T01:58:41;83;74;
57884;PMS5003;43703;51.060;-0.086;2024-03-08T02:01:06;93;79;
57884;PMS5003;43703;51.060;-0.086;2024-03-08T02:03:31;79;73;
57884;PMS5003;43703;51.060;-0.086;2024-03-08T02:05:57;93;79;
57884;PMS5003;43703;51.060;-0.086;2024-03-08T02:08:22;88;73;
57884;PMS5003;43703;51.060;-0.086;2024-03-08T02:10:48;71;66;
57884;PMS5003;43703;51.060;-0.086;2024-03-08T02:13:13;82;73;
57884;PMS5003;43703;51.060;-0.086;2024-03-08T02:18:04;85;78;
57884;PMS5003;43703;51.060;-0.086;2024-03-08T02:20:30;90;78;
57884;PMS5003;43703;51.060;-0.086;2024-03-08T02:22:55;84;77;
57884;PMS5003;43703;51.060;-0.086;2024-03-08T02:25:20;91;81;
57884;PMS5003;43703;51.060;-0.086;2024-03-08T02:27:45;87;81;
57884;PMS5003;43703;51.060;-0.086;2024-03-08T02:30:11;83;76;
57884;PMS5003;43703;51.060;-0.086;2024-03-08T02:32:37;87;76;
57884;PMS5003;43703;51.060;-0.086;2024-03-08T02:35:02;93;77;
57884;PMS5003;43703;51.060;-0.086;2024-03-08T02:37:27;103;85;
57884;PMS5003;43703;51.060;-0.086;2024-03-08T02:39:54;100;87;
57884;PMS5003;43703;51.060;-0.086;2024-03-08T02:42:19;89;78;
57884;PMS5003;43703;51.060;-0.086;2024-03-08T02:44:44;87;73;
57884;PMS5003;43703;51.060;-0.086;2024-03-08T02:47:10;89;81;
57884;PMS5003;43703;51.060;-0.086;2024-03-08T02:49:35;87;79;
57884;PMS5003;43703;51.060;-0.086;2024-03-08T02:52:01;91;80;
57884;PMS5003;43703;51.060;-0.086;2024-03-08T02:54:26;94;85;
57884;PMS5003;43703;51.060;-0.086;2024-03-08T02:56:51;88;78;
57884;PMS5003;43703;51.060;-0.086;2024-03-08T02:59:17;88;78;
57884;PMS5003;43703;51.060;-0.086;2024-03-08T03:01:42;87;77;
57884;PMS5003;43703;51.060;-0.086;2024-03-08T03:04:08;88;75;
57884;PMS5003;43703;51.060;-0.086;2024-03-08T03:06:33;74;67;
57884;PMS5003;43703;51.060;-0.086;2024-03-08T03:08:58;78;70;
57884;PMS5003;43703;51.060;-0.086;2024-03-08T03:11:23;78;70;
57884;PMS5003;43703;51.060;-0.086;2024-03-08T03:13:48;94;84;
57884;PMS5003;43703;51.060;-0.086;2024-03-08T03:16:16;90;79;
57884;PMS5003;43703;51.060;-0.086;2024-03-08T03:18:39;84;70;
57884;PMS5003;43703;51.060;-0.086;2024-03-08T03:21:04;76;71;
57884;PMS5003;43703;51.060;-0.086;2024-03-08T03:23:29;83;76;
57884;PMS5003;43703;51.060;-0.086;2024-03-08T03:25:54;83;78;
57884;PMS5003;43703;51.060;-0.086;2024-03-08T03:28:20;86;73;
57884;PMS5003;43703;51.060;-0.086;2024-03-08T03:30:45;80;76;
57884;PMS5003;43703;51.060;-0.086;2024-03-08T03:33:10;74;71;
57884;PMS5003;43703;51.060;-0.086;2024-03-08T03:35:35;82;74;
57884;PMS5003;43703;51.060;-0.086;2024-03-08T03:38:01;84;78;
57884;PMS5003;43703;51.060;-0.086;2024-03-08T03:40:27;78;72;
57884;PMS5003;43703;51.060;-0.086;2024-03-08T03:42:52;73;70;
57884;PMS5003;43703;51.060;-0.086;2024-03-08T03:45:17;90;75;
57884;PMS5003;43703;51.060;-0.086;2024-03-08T03:47:43;89;79;
57884;PMS5003;43703;51.060;-0.086;2024-03-08T03:50:09;80;75;
57884;PMS5003;43703;51.060;-0.086;2024-03-08T03:52:34;84;77;
57884;PMS5003;43703;51.060;-0.086;2024-03-08T03:55:00;78;75;
57884;PMS5003;43703;51.060;-0.086;2024-03-08T03:57:25;76;70;
57884;PMS5003;43703;51.060;-0.086;2024-03-08T03:59:51;84;74;
57884;PMS5003;43703;51.060;-0.086;2024-03-08T04:02:16;78;73;
57884;PMS5003;43703;51.060;-0.086;2024-03-08T04:04:41;75;67;
57884;PMS5003;43703;51.060;-0.086;2024-03-08T04:07:06;83;78;
57884;PMS5003;43703;51.060;-0.086;2024-03-08T04:09:32;75;71;
57884;PMS5003;43703;51.060;-0.086;2024-03-08T04:11:57;85;74;
57884;PMS5003;43703;51.060;-0.086;2024-03-08T04:14:22;72;69;
57884;PMS5003;43703;51.060;-0.086;2024-03-08T04:16:48;77;73;
57884;PMS5003;43703;51.060;-0.086;2024-03-08T04:19:13;75;70;
57884;PMS5003;43703;51.060;-0.086;2024-03-08T04:21:39;79;67;
57884;PMS5003;43703;51.060;-0.086;2024-03-08T04:24:04;78;73;
57884;PMS5003;43703;51.060;-0.086;2024-03-08T04:26:29;78;68;
57884;PMS5003;43703;51.060;-0.086;2024-03-08T04:28:55;81;73;
57884;PMS5003;43703;51.060;-0.086;2024-03-08T04:31:21;88;77;
57884;PMS5003;43703;51.060;-0.086;2024-03-08T04:33:46;77;71;
57884;PMS5003;43703;51.060;-0.086;2024-03-08T04:36:11;73;67;
57884;PMS5003;43703;51.060;-0.086;2024-03-08T04:38:36;78;71;
57884;PMS5003;43703;51.060;-0.086;2024-03-08T04:41:01;90;71;
57884;PMS5003;43703;51.060;-0.086;2024-03-08T04:43:27;80;72;
57884;PMS5003;43703;51.060;-0.086;2024-03-08T04:45:52;70;63;
57884;PMS5003;43703;51.060;-0.086;2024-03-08T04:48:18;76;69;
57884;PMS5003;43703;51.060;-0.086;2024-03-08T04:50:44;78;74;
57884;PMS5003;43703;51.060;-0.086;2024-03-08T04:53:09;84;72;
57884;PMS5003;43703;51.060;-0.086;2024-03-08T04:55:34;75;68;
57884;PMS5003;43703;51.060;-0.086;2024-03-08T04:57:59;72;67;
57884;PMS5003;43703;51.060;-0.086;2024-03-08T05:00:25;77;69;
57884;PMS5003;43703;51.060;-0.086;2024-03-08T05:02:50;76;64;
57884;PMS5003;43703;51.060;-0.086;2024-03-08T05:05:15;79;68;
57884;PMS5003;43703;51.060;-0.086;2024-03-08T05:07:41;69;63;
57884;PMS5003;43703;51.060;-0.086;2024-03-08T05:10:07;74;68;
57884;PMS5003;43703;51.060;-0.086;2024-03-08T05:12:32;76;72;
57884;PMS5003;43703;51.060;-0.086;2024-03-08T05:14:57;78;71;
57884;PMS5003;43703;51.060;-0.086;2024-03-08T05:17:22;81;73;
57884;PMS5003;43703;51.060;-0.086;2024-03-08T05:19:48;77;70;
57884;PMS5003;43703;51.060;-0.086;2024-03-08T05:22:13;71;67;
57884;PMS5003;43703;51.060;-0.086;2024-03-08T05:24:39;80;74;
57884;PMS5003;43703;51.060;-0.086;2024-03-08T05:27:04;85;74;
57884;PMS5003;43703;51.060;-0.086;2024-03-08T05:29:30;71;67;
57884;PMS5003;43703;51.060;-0.086;2024-03-08T05:31:55;76;72;
57884;PMS5003;43703;51.060;-0.086;2024-03-08T05:34:21;77;68;
57884;PMS5003;43703;51.060;-0.086;2024-03-08T05:36:49;83;67;
57884;PMS5003;43703;51.060;-0.086;2024-03-08T05:39:12;82;75;
57884;PMS5003;43703;51.060;-0.086;2024-03-08T05:41:37;81;74;
57884;PMS5003;43703;51.060;-0.086;2024-03-08T05:44:03;81;71;
57884;PMS5003;43703;51.060;-0.086;2024-03-08T05:46:29;72;65;
57884;PMS5003;43703;51.060;-0.086;2024-03-08T05:48:54;73;67;
57884;PMS5003;43703;51.060;-0.086;2024-03-08T05:51:19;73;68;
57884;PMS5003;43703;51.060;-0.086;2024-03-08T05:53:45;74;70;
57884;PMS5003;43703;51.060;-0.086;2024-03-08T05:56:10;79;66;
57884;PMS5003;43703;51.060;-0.086;2024-03-08T05:58:36;79;70;
57884;PMS5003;43703;51.060;-0.086;2024-03-08T06:01:02;69;64;
57884;PMS5003;43703;51.060;-0.086;2024-03-08T06:03:27;83;74;
57884;PMS5003;43703;51.060;-0.086;2024-03-08T06:05:52;79;71;
57884;PMS5003;43703;51.060;-0.086;2024-03-08T06:08:18;75;65;
57884;PMS5003;43703;51.060;-0.086;2024-03-08T06:10:44;77;71;
57884;PMS5003;43703;51.060;-0.086;2024-03-08T06:13:09;72;67;
57884;PMS5003;43703;51.060;-0.086;2024-03-08T06:15:34;63;60;
57884;PMS5003;43703;51.060;-0.086;2024-03-08T06:18:00;89;74;
57884;PMS5003;43703;51.060;-0.086;2024-03-08T06:20:26;77;69;
57884;PMS5003;43703;51.060;-0.086;2024-03-08T06:22:51;80;66;
57884;PMS5003;43703;51.060;-0.086;2024-03-08T06:25:16;75;66;
57884;PMS5003;43703;51.060;-0.086;2024-03-08T06:27:42;80;73;
57884;PMS5003;43703;51.060;-0.086;2024-03-08T06:30:08;80;73;
57884;PMS5003;43703;51.060;-0.086;2024-03-08T06:32:33;80;74;
57884;PMS5003;43703;51.060;-0.086;2024-03-08T06:34:59;81;68;
57884;PMS5003;43703;51.060;-0.086;2024-03-08T06:37:24;77;70;
57884;PMS5003;43703;51.060;-0.086;2024-03-08T06:39:49;73;66;
57884;PMS5003;43703;51.060;-0.086;2024-03-08T06:42:14;79;73;
57884;PMS5003;43703;51.060;-0.086;2024-03-08T06:44:39;82;73;
57884;PMS5003;43703;51.060;-0.086;2024-03-08T06:47:05;72;68;
57884;PMS5003;43703;51.060;-0.086;2024-03-08T06:49:31;77;70;
57884;PMS5003;43703;51.060;-0.086;2024-03-08T06:51:56;79;74;
57884;PMS5003;43703;51.060;-0.086;2024-03-08T06:54:22;75;69;
57884;PMS5003;43703;51.060;-0.086;2024-03-08T06:56:47;65;60;
57884;PMS5003;43703;51.060;-0.086;2024-03-08T06:59:12;77;70;
57884;PMS5003;43703;51.060;-0.086;2024-03-08T07:01:38;86;77;
57884;PMS5003;43703;51.060;-0.086;2024-03-08T07:04:03;66;63;
57884;PMS5003;43703;51.060;-0.086;2024-03-08T07:06:29;68;65;
57884;PMS5003;43703;51.060;-0.086;2024-03-08T07:08:54;72;63;
57884;PMS5003;43703;51.060;-0.086;2024-03-08T07:11:19;77;67;
57884;PMS5003;43703;51.060;-0.086;2024-03-08T07:13:45;82;74;
57884;PMS5003;43703;51.060;-0.086;2024-03-08T07:16:10;82;75;
57884;PMS5003;43703;51.060;-0.086;2024-03-08T07:18:36;77;69;
57884;PMS5003;43703;51.060;-0.086;2024-03-08T07:21:01;78;73;
57884;PMS5003;43703;51.060;-0.086;2024-03-08T07:23:26;64;61;
57884;PMS5003;43703;51.060;-0.086;2024-03-08T07:25:52;74;70;
57884;PMS5003;43703;51.060;-0.086;2024-03-08T07:28:17;77;72;
57884;PMS5003;43703;51.060;-0.086;2024-03-08T07:30:43;80;70;
57884;PMS5003;43703;51.060;-0.086;2024-03-08T07:33:09;70;69;
57884;PMS5003;43703;51.060;-0.086;2024-03-08T07:35:34;72;67;
57884;PMS5003;43703;51.060;-0.086;2024-03-08T07:38:00;76;71;
57884;PMS5003;43703;51.060;-0.086;2024-03-08T07:40:25;81;74;
57884;PMS5003;43703;51.060;-0.086;2024-03-08T07:42:51;81;73;
57884;PMS5003;43703;51.060;-0.086;2024-03-08T07:45:17;80;71;
57884;PMS5003;43703;51.060;-0.086;2024-03-08T07:47:42;86;80;
57884;PMS5003;43703;51.060;-0.086;2024-03-08T07:50:08;75;68;
57884;PMS5003;43703;51.060;-0.086;2024-03-08T07:52:33;72;68;
57884;PMS5003;43703;51.060;-0.086;2024-03-08T07:54:59;76;70;
57884;PMS5003;43703;51.060;-0.086;2024-03-08T07:57:24;82;68;
57884;PMS5003;43703;51.060;-0.086;2024-03-08T07:59:49;72;68;
57884;PMS5003;43703;51.060;-0.086;2024-03-08T08:02:15;75;68;
57884;PMS5003;43703;51.060;-0.086;2024-03-08T08:04:40;67;59;
57884;PMS5003;43703;51.060;-0.086;2024-03-08T08:07:05;75;68;
57884;PMS5003;43703;51.060;-0.086;2024-03-08T08:09:31;77;70;
57884;PMS5003;43703;51.060;-0.086;2024-03-08T08:11:57;68;62;
57884;PMS5003;43703;51.060;-0.086;2024-03-08T08:14:22;72;67;
57884;PMS5003;43703;51.060;-0.086;2024-03-08T08:16:48;74;66;
57884;PMS5003;43703;51.060;-0.086;2024-03-08T08:19:14;72;65;
57884;PMS5003;43703;51.060;-0.086;2024-03-08T08:21:38;73;65;
57884;PMS5003;43703;51.060;-0.086;2024-03-08T08:24:04;69;64;
57884;PMS5003;43703;51.060;-0.086;2024-03-08T08:26:29;73;62;
57884;PMS5003;43703;51.060;-0.086;2024-03-08T08:28:54;72;63;
57884;PMS5003;43703;51.060;-0.086;2024-03-08T08:31:20;68;63;
57884;PMS5003;43703;51.060;-0.086;2024-03-08T08:33:45;73;65;
57884;PMS5003;43703;51.060;-0.086;2024-03-08T08:36:10;82;68;
57884;PMS5003;43703;51.060;-0.086;2024-03-08T08:38:36;74;67;
57884;PMS5003;43703;51.060;-0.086;2024-03-08T08:41:01;81;78;
57884;PMS5003;43703;51.060;-0.086;2024-03-08T08:43:27;109;100;
57884;PMS5003;43703;51.060;-0.086;2024-03-08T08:45:53;175;140;
57884;PMS5003;43703;51.060;-0.086;2024-03-08T08:48:18;114;102;
57884;PMS5003;43703;51.060;-0.086;2024-03-08T08:50:44;86;79;
57884;PMS5003;43703;51.060;-0.086;2024-03-08T08:53:09;103;90;
57884;PMS5003;43703;51.060;-0.086;2024-03-08T08:55:34;89;86;
57884;PMS5003;43703;51.060;-0.086;2024-03-08T08:58:00;63;63;
57884;PMS5003;43703;51.060;-0.086;2024-03-08T09:00:26;68;61;
57884;PMS5003;43703;51.060;-0.086;2024-03-08T09:02:51;66;56;
57884;PMS5003;43703;51.060;-0.086;2024-03-08T09:05:16;65;63;
57884;PMS5003;43703;51.060;-0.086;2024-03-08T09:07:42;63;58;
57884;PMS5003;43703;51.060;-0.086;2024-03-08T09:10:07;65;63;
57884;PMS5003;43703;51.060;-0.086;2024-03-08T09:12:33;65;61;
57884;PMS5003;43703;51.060;-0.086;2024-03-08T09:14:59;69;63;
57884;PMS5003;43703;51.060;-0.086;2024-03-08T09:17:24;61;54;
57884;PMS5003;43703;51.060;-0.086;2024-03-08T09:19:50;56;52;
57884;PMS5003;43703;51.060;-0.086;2024-03-08T09:22:15;61;57;
57884;PMS5003;43703;51.060;-0.086;2024-03-08T09:24:41;52;52;
57884;PMS5003;43703;51.060;-0.086;2024-03-08T09:27:06;55;50;
57884;PMS5003;43703;51.060;-0.086;2024-03-08T09:29:31;61;54;
57884;PMS5003;43703;51.060;-0.086;2024-03-08T09:31:57;60;54;
57884;PMS5003;43703;51.060;-0.086;2024-03-08T09:34:22;52;51;
57884;PMS5003;43703;51.060;-0.086;2024-03-08T09:36:48;51;47;
57884;PMS5003;43703;51.060;-0.086;2024-03-08T09:39:13;50;47;
57884;PMS5003;43703;51.060;-0.086;2024-03-08T09:41:39;56;47;
57884;PMS5003;43703;51.060;-0.086;2024-03-08T09:44:04;52;48;
57884;PMS5003;43703;51.060;-0.086;2024-03-08T09:46:29;50;47;
57884;PMS5003;43703;51.060;-0.086;2024-03-08T09:48:55;47;45;
57884;PMS5003;43703;51.060;-0.086;2024-03-08T09:51:21;48;44;
57884;PMS5003;43703;51.060;-0.086;2024-03-08T09:53:51;51;48;
57884;PMS5003;43703;51.060;-0.086;2024-03-08T09:56:12;57;49;
57884;PMS5003;43703;51.060;-0.086;2024-03-08T09:58:37;54;48;
57884;PMS5003;43703;51.060;-0.086;2024-03-08T10:01:02;55;52;
57884;PMS5003;43703;51.060;-0.086;2024-03-08T10:03:28;49;48;
57884;PMS5003;43703;51.060;-0.086;2024-03-08T10:05:53;48;48;
57884;PMS5003;43703;51.060;-0.086;2024-03-08T10:08:19;51;46;
57884;PMS5003;43703;51.060;-0.086;2024-03-08T10:10:44;49;45;
57884;PMS5003;43703;51.060;-0.086;2024-03-08T10:13:10;54;47;
57884;PMS5003;43703;51.060;-0.086;2024-03-08T10:15:36;57;49;
57884;PMS5003;43703;51.060;-0.086;2024-03-08T10:18:01;43;41;
57884;PMS5003;43703;51.060;-0.086;2024-03-08T10:20:27;52;46;
57884;PMS5003;43703;51.060;-0.086;2024-03-08T10:22:52;50;43;
57884;PMS5003;43703;51.060;-0.086;2024-03-08T10:25:18;45;44;
57884;PMS5003;43703;51.060;-0.086;2024-03-08T10:27:43;44;43;
57884;PMS5003;43703;51.060;-0.086;2024-03-08T10:30:10;43;42;
57884;PMS5003;43703;51.060;-0.086;2024-03-08T10:32:34;44;42;
57884;PMS5003;43703;51.060;-0.086;2024-03-08T10:34:59;43;40;
57884;PMS5003;43703;51.060;-0.086;2024-03-08T10:37:25;43;40;
57884;PMS5003;43703;51.060;-0.086;2024-03-08T10:39:53;38;38;
57884;PMS5003;43703;51.060;-0.086;2024-03-08T10:42:16;41;40;
57884;PMS5003;43703;51.060;-0.086;2024-03-08T10:44:45;43;40;
57884;PMS5003;43703;51.060;-0.086;2024-03-08T10:47:09;46;41;
57884;PMS5003;43703;51.060;-0.086;2024-03-08T10:49:39;42;40;
57884;PMS5003;43703;51.060;-0.086;2024-03-08T10:51:58;41;39;
57884;PMS5003;43703;51.060;-0.086;2024-03-08T10:54:23;47;41;
57884;PMS5003;43703;51.060;-0.086;2024-03-08T10:56:49;45;43;
57884;PMS5003;43703;51.060;-0.086;2024-03-08T10:59:15;36;36;
57884;PMS5003;43703;51.060;-0.086;2024-03-08T11:01:40;43;39;
57884;PMS5003;43703;51.060;-0.086;2024-03-08T11:04:05;41;39;
57884;PMS5003;43703;51.060;-0.086;2024-03-08T11:06:41;40;38;
57884;PMS5003;43703;51.060;-0.086;2024-03-08T11:08:56;44;40;
57884;PMS5003;43703;51.060;-0.086;2024-03-08T11:11:24;45;41;
57884;PMS5003;43703;51.060;-0.086;2024-03-08T11:13:47;41;38;
57884;PMS5003;43703;51.060;-0.086;2024-03-08T11:18:38;43;38;
57884;PMS5003;43703;51.060;-0.086;2024-03-08T11:21:04;37;37;
57884;PMS5003;43703;51.060;-0.086;2024-03-08T11:23:28;45;39;
57884;PMS5003;43703;51.060;-0.086;2024-03-08T11:25:54;47;43;
57884;PMS5003;43703;51.060;-0.086;2024-03-08T11:28:20;39;39;
57884;PMS5003;43703;51.060;-0.086;2024-03-08T11:30:45;40;36;
57884;PMS5003;43703;51.060;-0.086;2024-03-08T11:33:11;44;42;
57884;PMS5003;43703;51.060;-0.086;2024-03-08T11:35:36;37;33;
57884;PMS5003;43703;51.060;-0.086;2024-03-08T11:38:01;37;35;
57884;PMS5003;43703;51.060;-0.086;2024-03-08T11:40:26;44;39;
57884;PMS5003;43703;51.060;-0.086;2024-03-08T11:42:52;39;39;
57884;PMS5003;43703;51.060;-0.086;2024-03-08T11:45:17;46;44;
57884;PMS5003;43703;51.060;-0.086;2024-03-08T11:47:43;36;35;
57884;PMS5003;43703;51.060;-0.086;2024-03-08T11:50:10;45;42;
57884;PMS5003;43703;51.060;-0.086;2024-03-08T11:52:34;39;36;
57884;PMS5003;43703;51.060;-0.086;2024-03-08T11:55:00;41;36;
57884;PMS5003;43703;51.060;-0.086;2024-03-08T11:57:26;36;33;
57884;PMS5003;43703;51.060;-0.086;2024-03-08T11:59:51;42;37;
57884;PMS5003;43703;51.060;-0.086;2024-03-08T12:02:16;38;35;
57884;PMS5003;43703;51.060;-0.086;2024-03-08T12:04:42;36;35;
57884;PMS5003;43703;51.060;-0.086;2024-03-08T12:07:09;39;37;
57884;PMS5003;43703;51.060;-0.086;2024-03-08T12:09:33;37;36;
57884;PMS5003;43703;51.060;-0.086;2024-03-08T12:11:58;42;41;
57884;PMS5003;43703;51.060;-0.086;2024-03-08T12:14:24;35;32;
57884;PMS5003;43703;51.060;-0.086;2024-03-08T12:16:50;41;39;
57884;PMS5003;43703;51.060;-0.086;2024-03-08T12:19:15;40;37;
57884;PMS5003;43703;51.060;-0.086;2024-03-08T12:21:41;39;35;
57884;PMS5003;43703;51.060;-0.086;2024-03-08T12:24:07;44;37;
57884;PMS5003;43703;51.060;-0.086;2024-03-08T12:26:31;38;36;
57884;PMS5003;43703;51.060;-0.086;2024-03-08T12:29:13;33;33;
57884;PMS5003;43703;51.060;-0.086;2024-03-08T12:31:22;35;32;
57884;PMS5003;43703;51.060;-0.086;2024-03-08T12:33:48;36;31;
57884;PMS5003;43703;51.060;-0.086;2024-03-08T12:36:14;35;35;
57884;PMS5003;43703;51.060;-0.086;2024-03-08T12:38:39;34;34;
57884;PMS5003;43703;51.060;-0.086;2024-03-08T12:41:04;42;39;
57884;PMS5003;43703;51.060;-0.086;2024-03-08T12:43:30;33;33;
57884;PMS5003;43703;51.060;-0.086;2024-03-08T12:45:55;37;37;
57884;PMS5003;43703;51.060;-0.086;2024-03-08T12:48:21;42;38;
57884;PMS5003;43703;51.060;-0.086;2024-03-08T12:50:46;39;35;
57884;PMS5003;43703;51.060;-0.086;2024-03-08T12:53:11;46;38;
57884;PMS5003;43703;51.060;-0.086;2024-03-08T12:55:37;36;36;
57884;PMS5003;43703;51.060;-0.086;2024-03-08T12:58:02;33;32;
57884;PMS5003;43703;51.060;-0.086;2024-03-08T13:00:27;42;40;
57884;PMS5003;43703;51.060;-0.086;2024-03-08T13:02:53;34;34;
57884;PMS5003;43703;51.060;-0.086;2024-03-08T13:05:18;39;36;
57884;PMS5003;43703;51.060;-0.086;2024-03-08T13:07:44;40;37;
57884;PMS5003;43703;51.060;-0.086;2024-03-08T13:10:09;41;36;
57884;PMS5003;43703;51.060;-0.086;2024-03-08T13:12:34;37;33;
57884;PMS5003;43703;51.060;-0.086;2024-03-08T13:14:59;43;41;
57884;PMS5003;43703;51.060;-0.086;2024-03-08T13:17:25;35;31;
57884;PMS5003;43703;51.060;-0.086;2024-03-08T13:19:50;44;40;
57884;PMS5003;43703;51.060;-0.086;2024-03-08T13:22:16;42;37;
57884;PMS5003;43703;51.060;-0.086;2024-03-08T13:24:41;31;30;
57884;PMS5003;43703;51.060;-0.086;2024-03-08T13:27:06;37;34;
57884;PMS5003;43703;51.060;-0.086;2024-03-08T13:29:31;33;32;
57884;PMS5003;43703;51.060;-0.086;2024-03-08T13:31:57;41;38;
57884;PMS5003;43703;51.060;-0.086;2024-03-08T13:34:22;43;37;
57884;PMS5003;43703;51.060;-0.086;2024-03-08T13:36:47;44;42;
57884;PMS5003;43703;51.060;-0.086;2024-03-08T13:39:13;41;38;
57884;PMS5003;43703;51.060;-0.086;2024-03-08T13:41:39;41;37;
57884;PMS5003;43703;51.060;-0.086;2024-03-08T13:44:04;42;39;
57884;PMS5003;43703;51.060;-0.086;2024-03-08T13:46:29;40;38;
57884;PMS5003;43703;51.060;-0.086;2024-03-08T13:48:54;41;37;
57884;PMS5003;43703;51.060;-0.086;2024-03-08T13:51:20;43;43;
57884;PMS5003;43703;51.060;-0.086;2024-03-08T13:53:45;46;40;
57884;PMS5003;43703;51.060;-0.086;2024-03-08T13:56:11;43;36;
57884;PMS5003;43703;51.060;-0.086;2024-03-08T13:58:36;45;42;
57884;PMS5003;43703;51.060;-0.086;2024-03-08T14:01:02;43;41;
57884;PMS5003;43703;51.060;-0.086;2024-03-08T14:03:28;44;38;
57884;PMS5003;43703;51.060;-0.086;2024-03-08T14:05:53;48;42;
57884;PMS5003;43703;51.060;-0.086;2024-03-08T14:08:19;46;40;
57884;PMS5003;43703;51.060;-0.086;2024-03-08T14:10:44;48;43;
57884;PMS5003;43703;51.060;-0.086;2024-03-08T14:13:09;54;45;
57884;PMS5003;43703;51.060;-0.086;2024-03-08T14:15:34;45;43;
57884;PMS5003;43703;51.060;-0.086;2024-03-08T14:18:00;47;44;
57884;PMS5003;43703;51.060;-0.086;2024-03-08T14:20:25;52;47;
57884;PMS5003;43703;51.060;-0.086;2024-03-08T14:22:50;48;46;
57884;PMS5003;43703;51.060;-0.086;2024-03-08T14:25:15;47;47;
57884;PMS5003;43703;51.060;-0.086;2024-03-08T14:27:41;52;46;
57884;PMS5003;43703;51.060;-0.086;2024-03-08T14:30:07;48;45;
57884;PMS5003;43703;51.060;-0.086;2024-03-08T14:32:32;49;46;
57884;PMS5003;43703;51.060;-0.086;2024-03-08T14:34:57;54;52;
57884;PMS5003;43703;51.060;-0.086;2024-03-08T14:37:23;54;49;
57884;PMS5003;43703;51.060;-0.086;2024-03-08T14:39:48;73;66;
57884;PMS5003;43703;51.060;-0.086;2024-03-08T14:42:13;61;59;
57884;PMS5003;43703;51.060;-0.086;2024-03-08T14:44:38;71;59;
57884;PMS5003;43703;51.060;-0.086;2024-03-08T14:47:04;58;53;
57884;PMS5003;43703;51.060;-0.086;2024-03-08T14:49:29;63;56;
57884;PMS5003;43703;51.060;-0.086;2024-03-08T14:51:55;62;60;
57884;PMS5003;43703;51.060;-0.086;2024-03-08T14:54:20;66;60;
57884;PMS5003;43703;51.060;-0.086;2024-03-08T14:56:45;64;62;
57884;PMS5003;43703;51.060;-0.086;2024-03-08T14:59:11;66;62;
57884;PMS5003;43703;51.060;-0.086;2024-03-08T15:01:37;66;61;
57884;PMS5003;43703;51.060;-0.086;2024-03-08T15:04:02;62;56;
57884;PMS5003;43703;51.060;-0.086;2024-03-08T15:06:27;63;59;
57884;PMS5003;43703;51.060;-0.086;2024-03-08T15:08:53;70;60;
57884;PMS5003;43703;51.060;-0.086;2024-03-08T15:11:19;62;56;
57884;PMS5003;43703;51.060;-0.086;2024-03-08T15:13:44;79;69;
57884;PMS5003;43703;51.060;-0.086;2024-03-08T15:16:10;70;61;
57884;PMS5003;43703;51.060;-0.086;2024-03-08T15:18:36;76;65;
57884;PMS5003;43703;51.060;-0.086;2024-03-08T15:21:02;61;56;
57884;PMS5003;43703;51.060;-0.086;2024-03-08T15:23:27;63;57;
57884;PMS5003;43703;51.060;-0.086;2024-03-08T15:25:52;65;61;
57884;PMS5003;43703;51.060;-0.086;2024-03-08T15:28:18;60;59;
57884;PMS5003;43703;51.060;-0.086;2024-03-08T15:30:43;74;65;
57884;PMS5003;43703;51.060;-0.086;2024-03-08T15:33:08;66;63;
57884;PMS5003;43703;51.060;-0.086;2024-03-08T15:35:34;70;63;
57884;PMS5003;43703;51.060;-0.086;2024-03-08T15:37:59;68;63;
57884;PMS5003;43703;51.060;-0.086;2024-03-08T15:40:25;63;59;
57884;PMS5003;43703;51.060;-0.086;2024-03-08T15:42:54;70;61;
57884;PMS5003;43703;51.060;-0.086;2024-03-08T15:45:16;68;64;
57884;PMS5003;43703;51.060;-0.086;2024-03-08T15:47:42;70;63;
57884;PMS5003;43703;51.060;-0.086;2024-03-08T15:50:07;75;67;
57884;PMS5003;43703;51.060;-0.086;2024-03-08T15:52:32;67;64;
57884;PMS5003;43703;51.060;-0.086;2024-03-08T15:54:57;68;62;
57884;PMS5003;43703;51.060;-0.086;2024-03-08T15:57:23;77;65;
57884;PMS5003;43703;51.060;-0.086;2024-03-08T15:59:48;71;65;
57884;PMS5003;43703;51.060;-0.086;2024-03-08T16:02:14;68;66;
57884;PMS5003;43703;51.060;-0.086;2024-03-08T16:04:39;71;66;